Marmet, WV (25315)

7:23 AM EST en Enero 27, 2015 (GMT -0500)
Hillcrest Drive East | Change Station
CLOSE
Current Station
Estación meteorológica personal
Location: Charleston, WV
Altura: 1053 ft
Estaciones meteorológicas cercanas

Alt 1053 ft 38.34 °N, 81.60 °W | Updated 1 second ago

Despejado
Despejado
16.2 ° F
Sensación térmica 16 ° F
N
0.9
Viento Variable Viento desde Oeste
Gusts 2.5 mph

Hoy
Alta -- | Baja -- ° F
--% Posibilidad de precipitaciones
Ayer
Alta -- | Baja -- ° F
Precip. -- pul
7:35 AM 5:43 PM
Cuarto creciente, 53% visible
Presión 29.96 pul
Visibilidad 10.0 Millas
Nubes Despejado
Vientos helados 16 ° F
Punto de rocío 9 ° F
Humedad 72%
Precipitaciones 0.00 pul
Espesor de la nieve No disponible.
UV 0.0 de una escala de 12
Polen .10 de una escala de 12
Calidad del aire No disponible.
Flu Activity No disponible.
METAR KCRW 271154Z 33003KT 10SM CLR M09/M11 A2992 RMK AO2 SLP144 70009 T10891111 11050 21089 53010

More Conditions Fewer Conditions

Presión 29.96 pul
Visibilidad 10.0 Millas
Nubes Despejado
Vientos helados 16 ° F
Punto de rocío 9 ° F
Humedad 72%
Precipitaciones 0.00 pul
Espesor de la nieve No disponible.
UV 0.0 de una escala de 12
Polen .10 de una escala de 12
Calidad del aire No disponible.
Flu Activity No disponible.
METAR KCRW 271154Z 33003KT 10SM CLR M09/M11 A2992 RMK AO2 SLP144 70009 T10891111 11050 21089 53010

More Conditions Fewer Conditions

10-Day Weather Forecast

Almanac

Astronomía

Jan. 27, 2015 Salida Puesta
Hora real
Crepúsculo civil
Crepúsculo náutico
Crepúsculo astronómico
Luna
Horas de luz
Horas de luz
Tomorrow will be .
, % of the Moon is Illuminated

Extremos de hoy

Máximos del estado Bajos del estado

Community

WunderPhotos

Upload Photos

1,790,579 ¡fotos cargadas!

WunderBlogs® & News

Nearby

Calidad del aire

  Calidad del aire Índice AQ Contaminante
Not available.

Grosos de nieve

Estación Profundido Altura

Actividad de terremotos

Ciudad Distance Mag. Tiempo y dato
Magnitud mínima muestra es 2,5.

Temperaturas de aguas costeras

Lugar Temperatura

Estaciones meteorológicas cercanas